createdAt,value
2022-10-06T00:00:15.375Z,99094.72
2022-10-06T00:01:18.319Z,99084.88
2022-10-06T00:02:19.940Z,99095.47
2022-10-06T00:03:23.095Z,99094.09
2022-10-06T00:04:24.906Z,99091.78
2022-10-06T00:05:26.715Z,99099.03
2022-10-06T00:06:28.160Z,99099.03
2022-10-06T00:07:29.598Z,99100.94
2022-10-06T00:08:32.637Z,99102.00
2022-10-06T00:09:34.458Z,99097.09
2022-10-06T00:10:35.910Z,99102.78
2022-10-06T00:11:37.687Z,99104.66
2022-10-06T00:12:46.118Z,99107.66
2022-10-06T00:13:47.619Z,99105.00
2022-10-06T00:14:49.371Z,99100.09
2022-10-06T00:15:51.038Z,99103.06
2022-10-06T00:16:52.564Z,99109.09
2022-10-06T00:17:55.059Z,99100.09
2022-10-06T00:18:57.936Z,99105.69
2022-10-06T00:19:59.290Z,99104.16
2022-10-06T00:21:01.461Z,99107.16
2022-10-06T00:22:02.953Z,99106.41
2022-10-06T00:23:04.529Z,99103.31
2022-10-06T00:24:06.511Z,99104.16
2022-10-06T00:25:10.474Z,99106.47
2022-10-06T00:26:16.718Z,99110.31
2022-10-06T00:27:18.597Z,99111.06
2022-10-06T00:28:20.269Z,99109.19
2022-10-06T00:29:22.170Z,99110.66
2022-10-06T00:30:26.137Z,99108.78
2022-10-06T00:31:27.652Z,99104.59
2022-10-06T00:32:29.145Z,99103.50
2022-10-06T00:33:30.589Z,99112.19
2022-10-06T00:34:32.397Z,99112.19
2022-10-06T00:35:35.112Z,99111.75
2022-10-06T00:36:37.298Z,99117.13
2022-10-06T00:37:38.787Z,99115.59
2022-10-06T00:38:40.352Z,99115.94
2022-10-06T00:39:42.235Z,99114.41
2022-10-06T00:40:49.774Z,99114.06
2022-10-06T00:41:51.226Z,99118.66
2022-10-06T00:43:01.061Z,99120.53
2022-10-06T00:44:02.872Z,99117.88
2022-10-06T00:45:06.258Z,99113.34
2022-10-06T00:46:09.946Z,99113.03
2022-10-06T00:47:11.535Z,99118.72
2022-10-06T00:48:22.048Z,99128.72
2022-10-06T00:49:36.019Z,99124.59
2022-10-06T00:50:38.164Z,99129.91
2022-10-06T00:51:47.693Z,99131.78
2022-10-06T00:52:50.094Z,99126.41
2022-10-06T00:53:51.979Z,99124.53
2022-10-06T00:54:53.699Z,99131.00
2022-10-06T00:55:55.208Z,99136.31
2022-10-06T00:56:57.755Z,99139.34
2022-10-06T00:58:00.109Z,99132.97
2022-10-06T00:59:01.946Z,99132.53
2022-10-06T01:00:08.059Z,99135.09
2022-10-06T01:01:11.881Z,99136.31
2022-10-06T01:02:16.038Z,99129.53
2022-10-06T01:03:21.881Z,99130.75
2022-10-06T01:04:24.855Z,99134.16
2022-10-06T01:05:28.447Z,99136.13
2022-10-06T01:06:29.888Z,99132.75
2022-10-06T01:07:32.282Z,99132.75
2022-10-06T01:08:34.334Z,99135.13
2022-10-06T01:09:36.985Z,99133.28
2022-10-06T01:10:38.516Z,99134.81
2022-10-06T01:11:40.273Z,99132.50
2022-10-06T01:12:41.791Z,99144.63
2022-10-06T01:13:45.297Z,99132.25
2022-10-06T01:14:47.789Z,99133.41
2022-10-06T01:16:03.481Z,99138.78
2022-10-06T01:17:11.246Z,99146.38
2022-10-06T01:18:16.173Z,99128.59
2022-10-06T01:19:36.504Z,99141.44
2022-10-06T01:20:39.054Z,99132.72
2022-10-06T01:21:46.439Z,99138.88
2022-10-06T01:22:51.379Z,99137.41
2022-10-06T01:23:53.604Z,99134.81
2022-10-06T01:24:55.880Z,99140.59
2022-10-06T01:25:59.118Z,99140.25
2022-10-06T01:27:01.359Z,99139.16
2022-10-06T01:28:04.942Z,99140.31
2022-10-06T01:29:06.872Z,99139.19
2022-10-06T01:30:11.105Z,99137.69
2022-10-06T01:31:13.184Z,99147.09
2022-10-06T01:32:14.676Z,99147.44
2022-10-06T01:33:16.480Z,99150.06
2022-10-06T01:34:18.305Z,99146.59
2022-10-06T01:35:20.441Z,99153.72
2022-10-06T01:36:21.994Z,99150.22
2022-10-06T01:37:23.401Z,99151.31
2022-10-06T01:38:24.907Z,99148.53
2022-10-06T01:39:26.348Z,99157.91
2022-10-06T01:40:29.322Z,99154.09
2022-10-06T01:41:33.272Z,99153.66
2022-10-06T01:42:35.843Z,99155.13
2022-10-06T01:43:37.303Z,99155.06
2022-10-06T01:44:39.190Z,99144.06
2022-10-06T01:45:40.628Z,99150.78
2022-10-06T01:46:42.159Z,99158.25
2022-10-06T01:47:43.716Z,99155.19
2022-10-06T01:48:45.226Z,99154.31
2022-10-06T01:49:47.287Z,99158.50
2022-10-06T01:50:48.836Z,99151.69
2022-10-06T01:51:50.442Z,99151.94
2022-10-06T01:52:51.956Z,99148.09
2022-10-06T01:53:53.404Z,99157.16
2022-10-06T01:54:55.307Z,99159.03
2022-10-06T01:56:00.219Z,99154.06
2022-10-06T01:57:01.847Z,99154.41
2022-10-06T01:58:03.488Z,99162.72
2022-10-06T01:59:05.471Z,99155.44
2022-10-06T02:00:08.105Z,99158.09
2022-10-06T02:01:10.341Z,99154.94
2022-10-06T02:02:11.887Z,99157.94
2022-10-06T02:03:13.407Z,99158.72
2022-10-06T02:04:15.250Z,99164.75
2022-10-06T02:05:16.901Z,99156.38
2022-10-06T02:06:18.449Z,99160.50
2022-10-06T02:07:19.994Z,99172.97
2022-10-06T02:08:21.451Z,99165.69
2022-10-06T02:09:23.761Z,99166.41
2022-10-06T02:10:25.251Z,99162.19
2022-10-06T02:11:27.225Z,99169.72
2022-10-06T02:12:31.698Z,99164.84
2022-10-06T02:13:33.816Z,99164.44
2022-10-06T02:14:35.595Z,99164.06
2022-10-06T02:15:37.058Z,99168.25
2022-10-06T02:16:39.164Z,99162.19
2022-10-06T02:17:40.603Z,99165.53
2022-10-06T02:18:42.534Z,99166.63
2022-10-06T02:19:44.036Z,99169.28
2022-10-06T02:20:45.484Z,99165.44
2022-10-06T02:21:46.980Z,99169.22
2022-10-06T02:22:48.607Z,99162.03
2022-10-06T02:23:50.788Z,99161.34
2022-10-06T02:24:52.239Z,99165.09
2022-10-06T02:26:05.020Z,99168.09
2022-10-06T02:27:06.953Z,99162.81
2022-10-06T02:28:08.508Z,99170.06
2022-10-06T02:29:10.356Z,99161.03
2022-10-06T02:30:14.442Z,99166.31
2022-10-06T02:31:17.082Z,99174.25
2022-10-06T02:32:18.596Z,99164.44
2022-10-06T02:33:20.100Z,99169.38
2022-10-06T02:34:21.907Z,99169.81
2022-10-06T02:35:23.418Z,99167.22
2022-10-06T02:36:24.927Z,99160.91
2022-10-06T02:37:26.366Z,99162.53
2022-10-06T02:38:28.984Z,99166.47
2022-10-06T02:39:31.062Z,99159.81
2022-10-06T02:40:32.773Z,99162.19
2022-10-06T02:41:34.314Z,99168.31
2022-10-06T02:42:37.568Z,99167.28
2022-10-06T02:43:39.506Z,99161.28
2022-10-06T02:44:41.414Z,99162.50
2022-10-06T02:45:43.241Z,99166.00
2022-10-06T02:46:44.866Z,99164.97
2022-10-06T02:47:46.545Z,99174.50
2022-10-06T02:48:48.332Z,99172.28
2022-10-06T02:50:02.690Z,99177.66
2022-10-06T02:51:09.700Z,99182.59
2022-10-06T02:52:11.156Z,99178.41
2022-10-06T02:53:13.242Z,99178.06
2022-10-06T02:54:15.769Z,99178.50
2022-10-06T02:55:17.308Z,99187.19
2022-10-06T02:56:24.346Z,99186.06
2022-10-06T02:57:26.491Z,99183.78
2022-10-06T02:58:32.499Z,99190.19
2022-10-06T02:59:34.127Z,99186.34
2022-10-06T03:00:35.569Z,99190.88
2022-10-06T03:01:37.200Z,99185.94
2022-10-06T03:02:38.787Z,99185.09
2022-10-06T03:03:41.120Z,99192.19
2022-10-06T03:04:42.561Z,99186.44
2022-10-06T03:05:43.989Z,99195.44
2022-10-06T03:06:45.492Z,99185.53
2022-10-06T03:07:46.903Z,99194.16
2022-10-06T03:08:52.361Z,99187.69
2022-10-06T03:09:53.824Z,99190.66
2022-10-06T03:11:06.626Z,99193.56
2022-10-06T03:12:08.413Z,99198.44
2022-10-06T03:13:09.852Z,99205.94
2022-10-06T03:14:11.631Z,99206.97
2022-10-06T03:15:13.511Z,99211.84
2022-10-06T03:16:26.468Z,99211.44
2022-10-06T03:17:28.101Z,99211.75
2022-10-06T03:18:31.438Z,99209.88
2022-10-06T03:19:33.592Z,99216.28
2022-10-06T03:20:35.412Z,99218.78
2022-10-06T03:21:40.482Z,99226.97
2022-10-06T03:22:41.914Z,99223.47
2022-10-06T03:23:44.582Z,99228.66
2022-10-06T03:24:46.351Z,99236.47
2022-10-06T03:25:56.494Z,99228.91
2022-10-06T03:26:58.272Z,99238.50
2022-10-06T03:28:00.776Z,99241.47
2022-10-06T03:29:02.598Z,99241.06
2022-10-06T03:30:04.984Z,99241.38
2022-10-06T03:31:07.309Z,99248.53
2022-10-06T03:32:08.829Z,99246.25
2022-10-06T03:33:10.239Z,99252.97
2022-10-06T03:34:13.800Z,99253.31
2022-10-06T03:35:15.370Z,99252.09
2022-10-06T03:36:19.128Z,99257.38
2022-10-06T03:37:20.664Z,99258.09
2022-10-06T03:38:22.105Z,99259.63
2022-10-06T03:39:23.914Z,99267.13
2022-10-06T03:40:25.333Z,99264.47
2022-10-06T03:41:37.716Z,99268.56
2022-10-06T03:42:39.231Z,99265.50
2022-10-06T03:43:43.159Z,99269.66
2022-10-06T03:44:44.985Z,99272.53
2022-10-06T03:45:56.792Z,99268.34
2022-10-06T03:46:58.256Z,99273.31
2022-10-06T03:48:00.422Z,99276.28
2022-10-06T03:49:02.230Z,99272.03
2022-10-06T03:50:04.240Z,99275.75
2022-10-06T03:51:08.612Z,99276.44
2022-10-06T03:52:10.273Z,99270.28
2022-10-06T03:53:11.759Z,99274.81
2022-10-06T03:54:13.200Z,99271.81
2022-10-06T03:55:14.680Z,99272.94
2022-10-06T03:56:28.201Z,99274.13
2022-10-06T03:57:29.621Z,99275.66
2022-10-06T03:58:33.112Z,99279.94
2022-10-06T03:59:35.081Z,99284.53
2022-10-06T04:00:36.518Z,99290.59
2022-10-06T04:01:40.599Z,99276.72
2022-10-06T04:02:42.104Z,99274.50
2022-10-06T04:03:44.537Z,99282.44
2022-10-06T04:04:46.351Z,99290.03
2022-10-06T04:05:58.706Z,99286.72
2022-10-06T04:07:00.149Z,99290.56
2022-10-06T04:08:01.568Z,99287.22
2022-10-06T04:09:05.009Z,99285.03
2022-10-06T04:10:07.645Z,99289.97
2022-10-06T04:11:21.093Z,99284.38
2022-10-06T04:12:22.650Z,99280.63
2022-10-06T04:13:24.143Z,99281.03
2022-10-06T04:14:25.971Z,99278.38
2022-10-06T04:15:27.407Z,99282.56
2022-10-06T04:16:32.598Z,99281.47
2022-10-06T04:17:34.170Z,99278.84
2022-10-06T04:18:35.664Z,99285.56
2022-10-06T04:19:37.459Z,99281.81
2022-10-06T04:20:39.243Z,99287.09
2022-10-06T04:21:43.394Z,99279.91
2022-10-06T04:22:45.044Z,99292.38
2022-10-06T04:23:46.685Z,99293.47
2022-10-06T04:24:48.586Z,99291.59
2022-10-06T04:25:55.157Z,99296.13
2022-10-06T04:27:17.981Z,99302.06
2022-10-06T04:28:19.485Z,99313.75
2022-10-06T04:29:21.634Z,99314.88
2022-10-06T04:30:23.408Z,99317.09
2022-10-06T04:31:27.552Z,99317.09
2022-10-06T04:32:29.641Z,99315.97
2022-10-06T04:33:34.163Z,99314.44
2022-10-06T04:34:35.952Z,99320.16
2022-10-06T04:35:37.413Z,99318.94
2022-10-06T04:36:41.343Z,99318.53
2022-10-06T04:37:43.153Z,99314.34
2022-10-06T04:38:44.646Z,99313.91
2022-10-06T04:39:46.513Z,99316.53
2022-10-06T04:40:48.007Z,99319.19
2022-10-06T04:41:49.470Z,99318.75
2022-10-06T04:42:50.917Z,99326.59
2022-10-06T04:43:53.135Z,99324.72
2022-10-06T04:44:54.935Z,99322.06
2022-10-06T04:45:58.464Z,99325.94
2022-10-06T04:47:01.233Z,99323.63
2022-10-06T04:48:02.731Z,99327.34
2022-10-06T04:49:04.218Z,99326.16
2022-10-06T04:50:06.474Z,99331.88
2022-10-06T04:51:16.005Z,99328.47
2022-10-06T04:52:17.448Z,99332.63
2022-10-06T04:53:18.930Z,99329.56
2022-10-06T04:54:20.425Z,99325.81
2022-10-06T04:55:21.850Z,99330.00
2022-10-06T04:56:26.340Z,99329.22
2022-10-06T04:57:27.817Z,99333.84
2022-10-06T04:58:33.764Z,99342.88
2022-10-06T04:59:54.019Z,99340.25
2022-10-06T05:00:55.563Z,99344.41
2022-10-06T05:01:58.152Z,99345.97
2022-10-06T05:02:59.593Z,99346.41
2022-10-06T05:04:02.841Z,99347.94
2022-10-06T05:05:06.159Z,99350.59
2022-10-06T05:06:11.472Z,99353.66
2022-10-06T05:07:12.907Z,99351.78
2022-10-06T05:08:14.517Z,99353.31
2022-10-06T05:09:16.099Z,99355.19
2022-10-06T05:10:17.905Z,99357.16
2022-10-06T05:11:25.686Z,99358.28
2022-10-06T05:12:31.064Z,99351.09
2022-10-06T05:13:32.966Z,99362.09
2022-10-06T05:14:34.757Z,99356.06
2022-10-06T05:15:36.232Z,99359.81
2022-10-06T05:16:38.323Z,99364.31
2022-10-06T05:17:39.968Z,99360.56
2022-10-06T05:18:42.076Z,99362.88
2022-10-06T05:19:43.827Z,99363.66
2022-10-06T05:21:00.242Z,99367.06
2022-10-06T05:22:03.728Z,99363.56
2022-10-06T05:23:07.345Z,99363.97
2022-10-06T05:24:09.038Z,99365.50
2022-10-06T05:25:10.848Z,99369.38
2022-10-06T05:26:14.272Z,99364.09
2022-10-06T05:27:15.709Z,99369.03
2022-10-06T05:28:17.179Z,99376.19
2022-10-06T05:29:18.647Z,99374.31
2022-10-06T05:30:20.132Z,99371.66
2022-10-06T05:31:31.631Z,99372.13
2022-10-06T05:32:36.061Z,99381.94
2022-10-06T05:33:38.196Z,99381.59
2022-10-06T05:34:39.958Z,99384.78
2022-10-06T05:35:51.328Z,99383.69
2022-10-06T05:36:52.838Z,99383.78
2022-10-06T05:37:54.577Z,99393.25
2022-10-06T05:38:57.425Z,99395.88
2022-10-06T05:39:59.183Z,99395.56
2022-10-06T05:41:13.938Z,99403.50
2022-10-06T05:42:15.394Z,99400.84
2022-10-06T05:43:18.147Z,99398.63
2022-10-06T05:44:19.577Z,99397.22
2022-10-06T05:45:21.468Z,99401.81
2022-10-06T05:46:28.015Z,99399.16
2022-10-06T05:47:29.440Z,99404.13
2022-10-06T05:48:31.673Z,99404.91
2022-10-06T05:49:33.851Z,99406.78
2022-10-06T05:50:35.284Z,99406.78
2022-10-06T05:51:38.843Z,99409.84
2022-10-06T05:52:40.493Z,99412.50
2022-10-06T05:53:42.236Z,99406.44
2022-10-06T05:54:43.990Z,99409.50
2022-10-06T05:55:45.451Z,99409.50
2022-10-06T05:56:46.931Z,99412.25
2022-10-06T05:57:48.368Z,99413.47
2022-10-06T05:58:51.988Z,99422.59
2022-10-06T05:59:53.740Z,99424.88
2022-10-06T06:00:55.171Z,99424.22
2022-10-06T06:01:57.070Z,99426.19
2022-10-06T06:02:58.617Z,99428.59
2022-10-06T06:04:12.200Z,99434.41
2022-10-06T06:05:14.079Z,99426.91
2022-10-06T06:06:16.859Z,99441.00
2022-10-06T06:07:18.335Z,99434.63
2022-10-06T06:08:19.842Z,99433.94
2022-10-06T06:09:21.927Z,99445.38
2022-10-06T06:10:23.674Z,99442.38
2022-10-06T06:11:27.627Z,99441.63
2022-10-06T06:12:29.072Z,99443.59
2022-10-06T06:13:30.527Z,99451.19
2022-10-06T06:14:50.911Z,99456.94
2022-10-06T06:16:01.765Z,99453.59
2022-10-06T06:17:03.304Z,99452.81
2022-10-06T06:18:06.116Z,99450.63
2022-10-06T06:19:10.998Z,99458.22
2022-10-06T06:20:12.973Z,99453.69
2022-10-06T06:21:14.623Z,99461.28
2022-10-06T06:22:16.085Z,99457.53
2022-10-06T06:23:17.522Z,99461.72
2022-10-06T06:24:19.031Z,99465.13
2022-10-06T06:25:20.561Z,99470.09
2022-10-06T06:26:23.589Z,99474.63
2022-10-06T06:27:26.173Z,99475.06
2022-10-06T06:28:29.770Z,99477.34
2022-10-06T06:29:31.412Z,99480.53
2022-10-06T06:30:33.808Z,99483.28
2022-10-06T06:31:38.035Z,99487.88
2022-10-06T06:32:40.171Z,99484.91
2022-10-06T06:33:42.128Z,99493.25
2022-10-06T06:34:43.912Z,99491.38
2022-10-06T06:35:45.338Z,99495.25
2022-10-06T06:36:53.591Z,99496.78
2022-10-06T06:37:55.259Z,99500.19
2022-10-06T06:38:58.130Z,99505.47
2022-10-06T06:39:59.922Z,99509.25
2022-10-06T06:41:01.350Z,99506.59
2022-10-06T06:42:05.099Z,99517.19
2022-10-06T06:43:06.604Z,99506.59
2022-10-06T06:44:11.169Z,99517.97
2022-10-06T06:45:14.029Z,99520.25
2022-10-06T06:46:16.433Z,99524.78
2022-10-06T06:47:19.881Z,99526.66
2022-10-06T06:48:25.180Z,99529.66
2022-10-06T06:49:26.713Z,99530.44
2022-10-06T06:50:29.121Z,99529.31
2022-10-06T06:51:35.540Z,99535.81
2022-10-06T06:52:37.398Z,99535.06
2022-10-06T06:53:40.232Z,99526.75
2022-10-06T06:54:42.049Z,99540.44
2022-10-06T06:55:50.885Z,99541.28
2022-10-06T06:56:52.439Z,99541.38
2022-10-06T06:57:53.947Z,99539.16
2022-10-06T06:58:55.386Z,99540.47
2022-10-06T06:59:57.810Z,99537.88
2022-10-06T07:01:06.489Z,99554.66
2022-10-06T07:02:10.034Z,99553.22
2022-10-06T07:03:24.106Z,99555.19
2022-10-06T07:04:37.276Z,99547.06
2022-10-06T07:05:40.311Z,99559.66
2022-10-06T07:06:46.481Z,99549.47
2022-10-06T07:07:48.110Z,99554.09
2022-10-06T07:08:49.749Z,99546.91
2022-10-06T07:09:51.283Z,99557.25
2022-10-06T07:10:52.974Z,99559.22
2022-10-06T07:11:55.182Z,99563.81
2022-10-06T07:12:56.618Z,99565.03
2022-10-06T07:14:03.543Z,99568.09
2022-10-06T07:15:24.263Z,99564.78
2022-10-06T07:16:44.297Z,99568.28
2022-10-06T07:18:04.170Z,99568.78
2022-10-06T07:19:25.341Z,99573.81
2022-10-06T07:20:45.199Z,99571.69
2022-10-06T07:22:12.057Z,99585.03
2022-10-06T07:23:37.479Z,99584.00
2022-10-06T07:24:58.004Z,99584.06
2022-10-06T07:25:59.437Z,99587.59
2022-10-06T07:27:01.966Z,99595.88
2022-10-06T07:28:04.025Z,99596.56
2022-10-06T07:29:05.525Z,99594.69
2022-10-06T07:30:09.635Z,99596.31
2022-10-06T07:31:11.138Z,99600.91
2022-10-06T07:32:13.306Z,99606.31
2022-10-06T07:33:15.806Z,99601.09
2022-10-06T07:34:17.286Z,99613.66
2022-10-06T07:35:20.392Z,99615.47
2022-10-06T07:36:22.476Z,99607.16
2022-10-06T07:37:24.153Z,99618.22
2022-10-06T07:38:26.004Z,99621.28
2022-10-06T07:39:27.490Z,99619.78
2022-10-06T07:40:29.243Z,99615.59
2022-10-06T07:41:31.606Z,99622.88
2022-10-06T07:42:48.261Z,99621.41
2022-10-06T07:43:50.579Z,99621.00
2022-10-06T07:45:11.247Z,99629.31
2022-10-06T07:46:14.444Z,99627.53
2022-10-06T07:47:15.963Z,99632.47
2022-10-06T07:48:19.884Z,99628.34
2022-10-06T07:49:21.912Z,99635.97
2022-10-06T07:50:23.974Z,99627.16
2022-10-06T07:51:27.261Z,99629.13
2022-10-06T07:52:28.926Z,99629.97
2022-10-06T07:53:30.371Z,99633.06
2022-10-06T07:54:31.881Z,99635.00
2022-10-06T07:55:33.782Z,99636.47
2022-10-06T07:56:35.234Z,99636.19
2022-10-06T07:57:36.787Z,99638.59
2022-10-06T07:58:38.835Z,99637.91
2022-10-06T07:59:41.583Z,99641.69
2022-10-06T08:00:44.324Z,99637.91
2022-10-06T08:01:46.035Z,99646.75
2022-10-06T08:02:47.656Z,99650.94
2022-10-06T08:03:50.566Z,99652.34
2022-10-06T08:04:52.526Z,99653.91
2022-10-06T08:05:58.926Z,99649.81
2022-10-06T08:07:00.478Z,99652.81
2022-10-06T08:08:02.076Z,99650.47
2022-10-06T08:09:03.921Z,99646.38
2022-10-06T08:10:05.828Z,99654.44
2022-10-06T08:11:08.549Z,99652.94
2022-10-06T08:12:28.451Z,99654.50
2022-10-06T08:13:32.229Z,99655.69
2022-10-06T08:14:33.689Z,99663.31
2022-10-06T08:15:35.677Z,99665.28
2022-10-06T08:16:37.258Z,99664.84
2022-10-06T08:17:38.827Z,99665.69
2022-10-06T08:18:46.334Z,99658.91
2022-10-06T08:19:48.786Z,99659.31
2022-10-06T08:20:50.346Z,99668.84
2022-10-06T08:21:52.142Z,99671.56
2022-10-06T08:22:54.525Z,99672.34
2022-10-06T08:23:57.712Z,99668.59
2022-10-06T08:25:07.319Z,99672.41
2022-10-06T08:26:13.776Z,99671.66
2022-10-06T08:27:15.226Z,99675.84
2022-10-06T08:28:16.824Z,99679.97
2022-10-06T08:29:18.425Z,99682.28
2022-10-06T08:30:20.313Z,99686.13
2022-10-06T08:31:23.092Z,99683.47
2022-10-06T08:32:24.644Z,99684.25
2022-10-06T08:33:26.986Z,99686.06
2022-10-06T08:34:28.625Z,99697.78
2022-10-06T08:35:33.376Z,99690.25
2022-10-06T08:36:34.944Z,99694.44
2022-10-06T08:37:36.605Z,99700.59
2022-10-06T08:38:40.630Z,99691.94
2022-10-06T08:39:44.712Z,99693.09
2022-10-06T08:40:47.098Z,99689.69
2022-10-06T08:41:51.937Z,99703.03
2022-10-06T08:42:58.655Z,99696.25
2022-10-06T08:44:05.474Z,99702.38
2022-10-06T08:45:13.781Z,99704.66
2022-10-06T08:46:18.713Z,99707.69
2022-10-06T08:47:24.439Z,99703.13
2022-10-06T08:48:30.102Z,99706.19
2022-10-06T08:49:37.252Z,99708.56
2022-10-06T08:50:47.934Z,99711.31
2022-10-06T08:52:10.088Z,99703.34
2022-10-06T08:53:21.697Z,99706.41
2022-10-06T08:54:48.377Z,99700.78
2022-10-06T08:56:09.171Z,99710.88
2022-10-06T08:57:24.966Z,99712.13
2022-10-06T08:58:45.222Z,99707.38
2022-10-06T08:59:49.609Z,99717.38
2022-10-06T09:00:56.824Z,99724.28
2022-10-06T09:01:58.560Z,99724.75
2022-10-06T09:03:02.183Z,99718.28
2022-10-06T09:04:07.730Z,99713.72
2022-10-06T09:05:13.663Z,99711.16
2022-10-06T09:06:33.071Z,99723.44
2022-10-06T09:08:08.963Z,99718.91
2022-10-06T09:09:37.729Z,99718.97
2022-10-06T09:10:54.062Z,99717.50
2022-10-06T09:12:19.785Z,99722.69
2022-10-06T09:13:28.662Z,99720.28
2022-10-06T09:14:37.903Z,99715.47
2022-10-06T09:15:51.064Z,99719.38
2022-10-06T09:17:00.840Z,99726.94
2022-10-06T09:18:17.991Z,99727.00
2022-10-06T09:19:33.486Z,99731.56
2022-10-06T09:20:47.394Z,99731.34
2022-10-06T09:21:53.336Z,99733.03
2022-10-06T09:22:56.660Z,99734.34
2022-10-06T09:24:05.043Z,99729.53
2022-10-06T09:25:26.831Z,99733.88
2022-10-06T09:26:30.496Z,99730.06
2022-10-06T09:27:33.924Z,99725.88
2022-10-06T09:28:35.808Z,99729.47
2022-10-06T09:29:37.697Z,99742.59
2022-10-06T09:30:41.782Z,99742.69
2022-10-06T09:31:50.882Z,99744.59
2022-10-06T09:32:59.096Z,99741.91
2022-10-06T09:34:18.894Z,99738.50
2022-10-06T09:35:22.804Z,99741.16
2022-10-06T09:36:24.312Z,99744.13
2022-10-06T09:37:26.974Z,99737.91
2022-10-06T09:38:47.707Z,99736.22
2022-10-06T09:39:51.269Z,99738.97
2022-10-06T09:40:54.548Z,99740.22
2022-10-06T09:41:56.528Z,99740.69
2022-10-06T09:42:58.041Z,99737.91
2022-10-06T09:44:05.077Z,99744.94
2022-10-06T09:45:24.987Z,99745.81
2022-10-06T09:46:41.863Z,99738.22
2022-10-06T09:47:45.531Z,99742.78
2022-10-06T09:48:47.328Z,99751.94
2022-10-06T09:50:21.956Z,99747.09
2022-10-06T09:51:24.747Z,99741.81
2022-10-06T09:52:26.224Z,99743.72
2022-10-06T09:53:27.753Z,99742.16
2022-10-06T09:54:30.883Z,99746.13
2022-10-06T09:55:34.713Z,99740.53
2022-10-06T09:56:43.223Z,99748.91
2022-10-06T09:57:50.177Z,99750.44
2022-10-06T09:58:56.449Z,99744.75
2022-10-06T10:00:00.391Z,99747.03
2022-10-06T10:01:12.644Z,99752.78
2022-10-06T10:02:30.480Z,99753.50
2022-10-06T10:04:18.702Z,99756.69
2022-10-06T10:05:21.244Z,99759.19
2022-10-06T10:06:28.194Z,99755.59
2022-10-06T10:07:31.344Z,99753.88
2022-10-06T10:08:32.852Z,99752.34
2022-10-06T10:09:34.401Z,99756.81
2022-10-06T10:10:37.883Z,99752.19
2022-10-06T10:11:58.155Z,99756.41
2022-10-06T10:13:00.774Z,99749.28
2022-10-06T10:14:02.203Z,99753.50
2022-10-06T10:15:24.709Z,99754.78
2022-10-06T10:16:28.600Z,99756.00
2022-10-06T10:17:32.440Z,99749.28
2022-10-06T10:18:35.480Z,99750.88
2022-10-06T10:19:43.103Z,99756.72
2022-10-06T10:20:56.046Z,99757.69
2022-10-06T10:21:57.620Z,99754.09
2022-10-06T10:23:02.749Z,99759.53
2022-10-06T10:24:14.981Z,99756.63
2022-10-06T10:25:16.360Z,99753.97
2022-10-06T10:26:31.472Z,99756.75
2022-10-06T10:27:37.165Z,99759.00
2022-10-06T10:29:04.517Z,99760.53
2022-10-06T10:30:10.402Z,99754.03
2022-10-06T10:31:19.213Z,99759.59
2022-10-06T10:32:40.257Z,99758.88
2022-10-06T10:34:11.818Z,99757.41
2022-10-06T10:35:37.268Z,99759.41
2022-10-06T10:37:16.429Z,99758.00
2022-10-06T10:38:23.224Z,99755.81
2022-10-06T10:39:35.900Z,99765.50
2022-10-06T10:41:04.706Z,99761.88
2022-10-06T10:42:27.524Z,99761.94
2022-10-06T10:43:33.779Z,99756.31
2022-10-06T10:44:41.319Z,99758.31
2022-10-06T10:45:50.908Z,99756.47
2022-10-06T10:46:56.026Z,99759.47
2022-10-06T10:47:59.917Z,99760.28
2022-10-06T10:49:12.315Z,99750.03
2022-10-06T10:50:28.232Z,99757.66
2022-10-06T10:51:38.005Z,99759.47
2022-10-06T10:52:42.852Z,99762.09
2022-10-06T10:53:50.590Z,99760.66
2022-10-06T10:55:01.034Z,99756.53
2022-10-06T10:56:03.765Z,99763.50
2022-10-06T10:57:14.136Z,99759.16
2022-10-06T10:58:27.739Z,99760.41
2022-10-06T10:59:52.077Z,99754.78
2022-10-06T11:00:58.126Z,99759.94
2022-10-06T11:02:05.017Z,99765.63
2022-10-06T11:03:10.814Z,99750.41
2022-10-06T11:04:13.851Z,99764.09
2022-10-06T11:05:18.174Z,99758.84
2022-10-06T11:06:38.506Z,99768.38
2022-10-06T11:07:53.392Z,99765.34
2022-10-06T11:09:09.219Z,99766.13
2022-10-06T11:10:10.563Z,99766.75
2022-10-06T11:11:25.116Z,99773.19
2022-10-06T11:12:45.320Z,99760.53
2022-10-06T11:13:54.175Z,99769.56
2022-10-06T11:15:01.675Z,99766.16
2022-10-06T11:16:43.294Z,99764.94
2022-10-06T11:17:46.811Z,99760.38
2022-10-06T11:19:08.584Z,99758.00
2022-10-06T11:20:12.916Z,99769.16
2022-10-06T11:21:24.326Z,99767.09
2022-10-06T11:22:47.406Z,99775.22
2022-10-06T11:24:15.568Z,99775.31
2022-10-06T11:25:44.636Z,99768.81
2022-10-06T11:26:55.513Z,99771.81
2022-10-06T11:28:20.580Z,99770.72
2022-10-06T11:29:34.349Z,99766.84
2022-10-06T11:30:50.374Z,99766.72
2022-10-06T11:32:10.613Z,99764.31
2022-10-06T11:33:20.352Z,99765.91
2022-10-06T11:34:21.807Z,99756.47
2022-10-06T11:35:29.801Z,99764.03
2022-10-06T11:36:47.046Z,99765.50
2022-10-06T11:37:55.523Z,99757.56
2022-10-06T11:39:06.835Z,99758.28
2022-10-06T11:41:06.166Z,99750.00
2022-10-06T11:43:46.529Z,99754.94
2022-10-06T11:44:55.346Z,99760.28
2022-10-06T11:46:31.793Z,99752.72
2022-10-06T11:47:55.307Z,99758.91
2022-10-06T11:49:36.923Z,99752.84
2022-10-06T11:50:40.277Z,99755.09
2022-10-06T11:51:42.053Z,99749.84
2022-10-06T11:52:45.505Z,99749.09
2022-10-06T11:53:47.461Z,99751.00
2022-10-06T11:54:57.130Z,99754.44
2022-10-06T11:56:34.993Z,99751.75
2022-10-06T11:58:12.635Z,99753.28
2022-10-06T11:59:25.829Z,99752.59
2022-10-06T12:00:33.375Z,99756.94
2022-10-06T12:01:35.334Z,99746.63
2022-10-06T12:02:41.800Z,99743.63
2022-10-06T12:04:10.499Z,99746.59
2022-10-06T12:06:48.903Z,99735.16
2022-10-06T12:07:56.213Z,99741.28
2022-10-06T12:08:58.368Z,99739.47
2022-10-06T12:10:28.496Z,99743.28
2022-10-06T12:11:42.675Z,99734.94
2022-10-06T12:13:01.803Z,99737.25
2022-10-06T12:16:07.024Z,99732.75
2022-10-06T12:18:04.343Z,99726.31
2022-10-06T12:19:19.376Z,99725.16
2022-10-06T12:20:23.682Z,99719.50
2022-10-06T12:21:32.895Z,99728.41
2022-10-06T12:22:47.241Z,99729.13
2022-10-06T12:24:01.138Z,99729.78
2022-10-06T12:25:32.613Z,99723.38
2022-10-06T12:26:50.353Z,99722.69
2022-10-06T12:28:40.630Z,99720.75
2022-10-06T12:29:48.949Z,99719.31
2022-10-06T12:31:15.780Z,99718.28
2022-10-06T12:32:46.390Z,99714.38
2022-10-06T12:33:48.818Z,99711.28
2022-10-06T12:35:09.744Z,99712.00
2022-10-06T12:36:16.890Z,99714.75
2022-10-06T12:37:43.195Z,99711.75
2022-10-06T12:39:05.209Z,99706.72
2022-10-06T12:40:47.294Z,99709.72
2022-10-06T12:41:58.485Z,99712.94
2022-10-06T12:43:18.114Z,99708.78
2022-10-06T12:44:25.703Z,99703.41
2022-10-06T12:45:27.130Z,99708.78
2022-10-06T12:46:36.745Z,99708.34
2022-10-06T12:47:43.438Z,99709.53
2022-10-06T12:49:02.687Z,99707.28
2022-10-06T12:50:27.102Z,99704.22
2022-10-06T12:51:35.088Z,99705.75
2022-10-06T12:52:46.115Z,99708.50
2022-10-06T12:53:53.404Z,99708.13
2022-10-06T12:55:07.368Z,99714.63
2022-10-06T12:56:33.074Z,99708.53
2022-10-06T12:57:52.073Z,99710.50
2022-10-06T12:58:54.183Z,99706.31
2022-10-06T12:59:55.595Z,99713.56
2022-10-06T13:01:09.481Z,99705.22
2022-10-06T13:02:21.917Z,99712.06
2022-10-06T13:03:25.031Z,99713.22